sensor_id;sensor_type;location;lat;lon;timestamp;temperature;humidity
2212;DHT22;48849;48.758;9.158;2024-03-02T00:20:53;10.00;99.90
2212;DHT22;48849;48.758;9.158;2024-03-02T00:23:23;11.20;99.90
2212;DHT22;48849;48.758;9.158;2024-03-02T00:25:57;10.00;99.90
2212;DHT22;48849;48.758;9.158;2024-03-02T00:28:29;10.00;99.90
2212;DHT22;48849;48.758;9.158;2024-03-02T00:31:14;10.00;99.90
2212;DHT22;48849;48.758;9.158;2024-03-02T00:33:46;10.00;99.90
2212;DHT22;48849;48.758;9.158;2024-03-02T00:36:24;10.10;99.90
2212;DHT22;48849;48.758;9.158;2024-03-02T00:38:58;10.10;99.90
2212;DHT22;48849;48.758;9.158;2024-03-02T00:41:30;10.10;99.90
2212;DHT22;48849;48.758;9.158;2024-03-02T00:44:04;10.10;99.90
2212;DHT22;48849;48.758;9.158;2024-03-02T00:46:34;10.20;99.90
2212;DHT22;48849;48.758;9.158;2024-03-02T00:49:23;10.10;99.90
2212;DHT22;48849;48.758;9.158;2024-03-02T00:52:02;11.20;99.90
2212;DHT22;48849;48.758;9.158;2024-03-02T00:54:38;9.60;99.90
2212;DHT22;48849;48.758;9.158;2024-03-02T00:57:13;11.20;99.90
2212;DHT22;48849;48.758;9.158;2024-03-02T00:59:50;10.10;99.90
2212;DHT22;48849;48.758;9.158;2024-03-02T01:02:24;10.20;99.90
2212;DHT22;48849;48.758;9.158;2024-03-02T01:05:12;11.80;99.90
2212;DHT22;48849;48.758;9.158;2024-03-02T01:07:47;10.90;99.90
2212;DHT22;48849;48.758;9.158;2024-03-02T01:10:34;11.40;99.90
2212;DHT22;48849;48.758;9.158;2024-03-02T01:13:06;11.00;99.90
2212;DHT22;48849;48.758;9.158;2024-03-02T01:15:33;9.10;99.90
2212;DHT22;48849;48.758;9.158;2024-03-02T01:18:05;11.40;99.90
2212;DHT22;48849;48.758;9.158;2024-03-02T01:20:38;11.30;99.90
2212;DHT22;48849;48.758;9.158;2024-03-02T01:23:09;10.70;99.90
2212;DHT22;48849;48.758;9.158;2024-03-02T01:25:39;11.00;99.90
2212;DHT22;48849;48.758;9.158;2024-03-02T01:28:14;10.10;99.90
2212;DHT22;48849;48.758;9.158;2024-03-02T01:30:41;10.10;99.90
2212;DHT22;48849;48.758;9.158;2024-03-02T01:33:08;10.00;99.90
2212;DHT22;48849;48.758;9.158;2024-03-02T01:35:38;11.30;99.90
2212;DHT22;48849;48.758;9.158;2024-03-02T01:38:06;10.00;99.90
2212;DHT22;48849;48.758;9.158;2024-03-02T01:40:37;9.50;99.90
2212;DHT22;48849;48.758;9.158;2024-03-02T01:43:05;9.90;99.90
2212;DHT22;48849;48.758;9.158;2024-03-02T01:45:38;9.90;99.90
2212;DHT22;48849;48.758;9.158;2024-03-02T01:48:12;9.90;99.90
2212;DHT22;48849;48.758;9.158;2024-03-02T01:50:47;10.00;99.90
2212;DHT22;48849;48.758;9.158;2024-03-02T01:53:18;10.30;99.90
2212;DHT22;48849;48.758;9.158;2024-03-02T01:56:08;10.00;99.90
2212;DHT22;48849;48.758;9.158;2024-03-02T01:58:37;9.30;99.90
2212;DHT22;48849;48.758;9.158;2024-03-02T02:01:09;9.90;99.90
2212;DHT22;48849;48.758;9.158;2024-03-02T02:03:39;9.90;99.90
2212;DHT22;48849;48.758;9.158;2024-03-02T02:06:08;10.00;99.90
2212;DHT22;48849;48.758;9.158;2024-03-02T02:08:37;9.90;99.90
2212;DHT22;48849;48.758;9.158;2024-03-02T02:11:06;10.40;99.90
2212;DHT22;48849;48.758;9.158;2024-03-02T02:13:35;9.80;99.90
2212;DHT22;48849;48.758;9.158;2024-03-02T02:16:10;9.80;99.90
2212;DHT22;48849;48.758;9.158;2024-03-02T02:18:38;9.80;99.90
2212;DHT22;48849;48.758;9.158;2024-03-02T02:21:07;10.20;99.90
2212;DHT22;48849;48.758;9.158;2024-03-02T02:23:37;10.60;99.90
2212;DHT22;48849;48.758;9.158;2024-03-02T02:26:08;9.60;99.90
2212;DHT22;48849;48.758;9.158;2024-03-02T02:28:37;9.50;99.90
2212;DHT22;48849;48.758;9.158;2024-03-02T02:31:10;9.60;99.90
2212;DHT22;48849;48.758;9.158;2024-03-02T02:33:41;9.90;99.90
2212;DHT22;48849;48.758;9.158;2024-03-02T02:36:09;8.60;99.90
2212;DHT22;48849;48.758;9.158;2024-03-02T02:38:44;10.30;99.90
2212;DHT22;48849;48.758;9.158;2024-03-02T02:41:17;9.30;99.90
2212;DHT22;48849;48.758;9.158;2024-03-02T02:43:47;8.60;99.90
2212;DHT22;48849;48.758;9.158;2024-03-02T02:46:16;10.50;99.90
2212;DHT22;48849;48.758;9.158;2024-03-02T02:48:45;9.40;99.90
2212;DHT22;48849;48.758;9.158;2024-03-02T02:51:15;10.70;99.90
2212;DHT22;48849;48.758;9.158;2024-03-02T02:53:45;9.40;99.90
2212;DHT22;48849;48.758;9.158;2024-03-02T02:56:17;9.30;99.90
2212;DHT22;48849;48.758;9.158;2024-03-02T02:58:45;9.40;99.90
2212;DHT22;48849;48.758;9.158;2024-03-02T03:01:12;9.40;99.90
2212;DHT22;48849;48.758;9.158;2024-03-02T03:03:42;9.80;99.90
2212;DHT22;48849;48.758;9.158;2024-03-02T03:06:16;10.40;99.90
2212;DHT22;48849;48.758;9.158;2024-03-02T03:08:47;10.80;99.90
2212;DHT22;48849;48.758;9.158;2024-03-02T03:11:14;10.70;99.90
2212;DHT22;48849;48.758;9.158;2024-03-02T03:13:41;9.80;99.90
2212;DHT22;48849;48.758;9.158;2024-03-02T03:16:10;10.50;99.90
2212;DHT22;48849;48.758;9.158;2024-03-02T03:18:45;9.20;99.90
2212;DHT22;48849;48.758;9.158;2024-03-02T03:21:18;9.00;99.90
2212;DHT22;48849;48.758;9.158;2024-03-02T03:23:50;10.50;99.90
2212;DHT22;48849;48.758;9.158;2024-03-02T03:26:21;9.10;99.90
2212;DHT22;48849;48.758;9.158;2024-03-02T03:28:51;9.20;99.90
2212;DHT22;48849;48.758;9.158;2024-03-02T03:31:20;9.90;99.90
2212;DHT22;48849;48.758;9.158;2024-03-02T03:33:47;10.40;99.90
2212;DHT22;48849;48.758;9.158;2024-03-02T03:36:16;10.00;99.90
2212;DHT22;48849;48.758;9.158;2024-03-02T03:38:43;10.20;99.90
2212;DHT22;48849;48.758;9.158;2024-03-02T03:41:11;9.80;99.90
2212;DHT22;48849;48.758;9.158;2024-03-02T03:43:38;9.30;99.90
2212;DHT22;48849;48.758;9.158;2024-03-02T03:46:08;9.50;99.90
2212;DHT22;48849;48.758;9.158;2024-03-02T03:48:39;9.00;99.90
2212;DHT22;48849;48.758;9.158;2024-03-02T03:51:08;9.00;99.90
2212;DHT22;48849;48.758;9.158;2024-03-02T03:53:35;8.90;99.90
2212;DHT22;48849;48.758;9.158;2024-03-02T03:56:03;8.90;99.90
2212;DHT22;48849;48.758;9.158;2024-03-02T03:58:31;9.00;99.90
2212;DHT22;48849;48.758;9.158;2024-03-02T04:00:58;9.00;99.90
2212;DHT22;48849;48.758;9.158;2024-03-02T04:03:25;9.00;99.90
2212;DHT22;48849;48.758;9.158;2024-03-02T04:05:53;9.00;99.90
2212;DHT22;48849;48.758;9.158;2024-03-02T04:08:19;9.30;99.90
2212;DHT22;48849;48.758;9.158;2024-03-02T04:10:47;9.00;99.90
2212;DHT22;48849;48.758;9.158;2024-03-02T04:13:14;9.30;99.90
2212;DHT22;48849;48.758;9.158;2024-03-02T04:15:42;9.40;99.90
2212;DHT22;48849;48.758;9.158;2024-03-02T04:18:09;9.00;99.90
2212;DHT22;48849;48.758;9.158;2024-03-02T04:20:37;9.00;99.90
2212;DHT22;48849;48.758;9.158;2024-03-02T04:23:05;9.00;99.90
2212;DHT22;48849;48.758;9.158;2024-03-02T04:25:38;9.00;99.90
2212;DHT22;48849;48.758;9.158;2024-03-02T04:28:05;9.00;99.90
2212;DHT22;48849;48.758;9.158;2024-03-02T04:30:37;9.00;99.90
2212;DHT22;48849;48.758;9.158;2024-03-02T04:33:06;8.90;99.90
2212;DHT22;48849;48.758;9.158;2024-03-02T04:35:38;9.00;99.90
2212;DHT22;48849;48.758;9.158;2024-03-02T04:38:05;8.90;99.90
2212;DHT22;48849;48.758;9.158;2024-03-02T04:40:34;8.90;99.90
2212;DHT22;48849;48.758;9.158;2024-03-02T04:43:04;9.50;99.90
2212;DHT22;48849;48.758;9.158;2024-03-02T04:45:35;10.60;99.90
2212;DHT22;48849;48.758;9.158;2024-03-02T04:48:09;8.90;99.90
2212;DHT22;48849;48.758;9.158;2024-03-02T04:50:36;8.80;99.90
2212;DHT22;48849;48.758;9.158;2024-03-02T04:53:03;10.00;99.90
2212;DHT22;48849;48.758;9.158;2024-03-02T04:55:30;8.90;99.90
2212;DHT22;48849;48.758;9.158;2024-03-02T04:58:23;8.80;99.90
2212;DHT22;48849;48.758;9.158;2024-03-02T05:00:49;8.90;99.90
2212;DHT22;48849;48.758;9.158;2024-03-02T05:03:20;8.90;99.90
2212;DHT22;48849;48.758;9.158;2024-03-02T05:05:47;10.00;99.90
2212;DHT22;48849;48.758;9.158;2024-03-02T05:08:20;8.60;99.90
2212;DHT22;48849;48.758;9.158;2024-03-02T05:10:51;7.60;99.90
2212;DHT22;48849;48.758;9.158;2024-03-02T05:13:21;8.60;99.90
2212;DHT22;48849;48.758;9.158;2024-03-02T05:15:50;8.50;99.90
2212;DHT22;48849;48.758;9.158;2024-03-02T05:18:22;8.60;99.90
2212;DHT22;48849;48.758;9.158;2024-03-02T05:20:50;8.60;99.90
2212;DHT22;48849;48.758;9.158;2024-03-02T05:23:16;8.70;99.90
2212;DHT22;48849;48.758;9.158;2024-03-02T05:25:50;8.80;99.90
2212;DHT22;48849;48.758;9.158;2024-03-02T05:28:29;9.80;99.90
2212;DHT22;48849;48.758;9.158;2024-03-02T05:30:57;9.90;99.90
2212;DHT22;48849;48.758;9.158;2024-03-02T05:33:33;9.50;99.90
2212;DHT22;48849;48.758;9.158;2024-03-02T05:36:00;8.70;99.90
2212;DHT22;48849;48.758;9.158;2024-03-02T05:38:31;9.60;99.90
2212;DHT22;48849;48.758;9.158;2024-03-02T05:41:03;10.10;99.90
2212;DHT22;48849;48.758;9.158;2024-03-02T05:43:33;8.80;99.90
2212;DHT22;48849;48.758;9.158;2024-03-02T05:46:07;8.70;99.90
2212;DHT22;48849;48.758;9.158;2024-03-02T05:48:41;9.90;99.90
2212;DHT22;48849;48.758;9.158;2024-03-02T05:51:11;9.90;99.90
2212;DHT22;48849;48.758;9.158;2024-03-02T05:53:43;9.30;99.90
2212;DHT22;48849;48.758;9.158;2024-03-02T05:56:11;10.20;99.90
2212;DHT22;48849;48.758;9.158;2024-03-02T05:58:45;8.70;99.90
2212;DHT22;48849;48.758;9.158;2024-03-02T06:01:23;8.70;99.90
2212;DHT22;48849;48.758;9.158;2024-03-02T06:03:55;8.70;99.90
2212;DHT22;48849;48.758;9.158;2024-03-02T06:06:25;9.80;99.90
2212;DHT22;48849;48.758;9.158;2024-03-02T06:08:52;8.70;99.90
2212;DHT22;48849;48.758;9.158;2024-03-02T06:11:31;8.80;99.90
2212;DHT22;48849;48.758;9.158;2024-03-02T06:14:00;8.90;99.90
2212;DHT22;48849;48.758;9.158;2024-03-02T06:16:27;9.50;99.90
2212;DHT22;48849;48.758;9.158;2024-03-02T06:18:56;8.80;99.90
2212;DHT22;48849;48.758;9.158;2024-03-02T06:21:23;8.80;99.90
2212;DHT22;48849;48.758;9.158;2024-03-02T06:23:50;8.80;99.90
2212;DHT22;48849;48.758;9.158;2024-03-02T06:26:17;8.80;99.90
2212;DHT22;48849;48.758;9.158;2024-03-02T06:28:44;8.80;99.90
2212;DHT22;48849;48.758;9.158;2024-03-02T06:31:11;8.80;99.90
2212;DHT22;48849;48.758;9.158;2024-03-02T06:33:39;8.70;99.90
2212;DHT22;48849;48.758;9.158;2024-03-02T06:36:08;8.70;99.90
2212;DHT22;48849;48.758;9.158;2024-03-02T06:38:37;9.80;99.90
2212;DHT22;48849;48.758;9.158;2024-03-02T06:41:06;9.80;99.90
2212;DHT22;48849;48.758;9.158;2024-03-02T06:43:36;9.90;99.90
2212;DHT22;48849;48.758;9.158;2024-03-02T06:46:03;9.80;99.90
2212;DHT22;48849;48.758;9.158;2024-03-02T06:48:38;9.80;99.90
2212;DHT22;48849;48.758;9.158;2024-03-02T06:51:05;9.50;99.90
2212;DHT22;48849;48.758;9.158;2024-03-02T06:53:42;8.90;99.90
2212;DHT22;48849;48.758;9.158;2024-03-02T06:56:09;8.70;99.90
2212;DHT22;48849;48.758;9.158;2024-03-02T06:58:37;8.90;99.90
2212;DHT22;48849;48.758;9.158;2024-03-02T07:01:18;8.90;99.90
2212;DHT22;48849;48.758;9.158;2024-03-02T07:03:46;9.00;99.90
2212;DHT22;48849;48.758;9.158;2024-03-02T07:06:16;9.40;99.90
2212;DHT22;48849;48.758;9.158;2024-03-02T07:08:50;9.30;99.90
2212;DHT22;48849;48.758;9.158;2024-03-02T07:11:22;9.60;99.90
2212;DHT22;48849;48.758;9.158;2024-03-02T07:13:54;9.90;99.90
2212;DHT22;48849;48.758;9.158;2024-03-02T07:16:25;8.10;99.90
2212;DHT22;48849;48.758;9.158;2024-03-02T07:19:02;10.50;99.90
2212;DHT22;48849;48.758;9.158;2024-03-02T07:21:28;9.90;99.90
2212;DHT22;48849;48.758;9.158;2024-03-02T07:23:56;9.20;99.90
2212;DHT22;48849;48.758;9.158;2024-03-02T07:26:24;10.30;99.90
2212;DHT22;48849;48.758;9.158;2024-03-02T07:28:52;8.40;99.90
2212;DHT22;48849;48.758;9.158;2024-03-02T07:31:21;9.20;99.90
2212;DHT22;48849;48.758;9.158;2024-03-02T07:33:51;9.20;99.90
2212;DHT22;48849;48.758;9.158;2024-03-02T07:36:23;9.30;99.90
2212;DHT22;48849;48.758;9.158;2024-03-02T07:38:50;9.30;99.90
2212;DHT22;48849;48.758;9.158;2024-03-02T07:41:18;9.20;99.90
2212;DHT22;48849;48.758;9.158;2024-03-02T07:43:46;9.40;99.90
2212;DHT22;48849;48.758;9.158;2024-03-02T07:46:12;9.40;99.90
2212;DHT22;48849;48.758;9.158;2024-03-02T07:48:39;9.40;99.90
2212;DHT22;48849;48.758;9.158;2024-03-02T07:51:06;9.50;99.90
2212;DHT22;48849;48.758;9.158;2024-03-02T07:53:33;9.50;99.90
2212;DHT22;48849;48.758;9.158;2024-03-02T07:56:02;9.50;99.90
2212;DHT22;48849;48.758;9.158;2024-03-02T07:58:30;9.50;99.90
2212;DHT22;48849;48.758;9.158;2024-03-02T08:00:59;9.60;99.90
2212;DHT22;48849;48.758;9.158;2024-03-02T08:03:27;9.60;99.90
2212;DHT22;48849;48.758;9.158;2024-03-02T08:05:53;9.60;99.90
2212;DHT22;48849;48.758;9.158;2024-03-02T08:08:20;9.60;99.90
2212;DHT22;48849;48.758;9.158;2024-03-02T08:10:47;9.70;99.90
2212;DHT22;48849;48.758;9.158;2024-03-02T08:13:14;9.70;99.90
2212;DHT22;48849;48.758;9.158;2024-03-02T08:15:42;9.70;99.90
2212;DHT22;48849;48.758;9.158;2024-03-02T08:18:09;9.80;99.90
2212;DHT22;48849;48.758;9.158;2024-03-02T08:20:37;9.80;99.90
2212;DHT22;48849;48.758;9.158;2024-03-02T08:23:05;9.80;99.90
2212;DHT22;48849;48.758;9.158;2024-03-02T08:25:32;9.80;99.90
2212;DHT22;48849;48.758;9.158;2024-03-02T08:27:59;9.80;99.90
2212;DHT22;48849;48.758;9.158;2024-03-02T08:30:25;9.80;99.90
2212;DHT22;48849;48.758;9.158;2024-03-02T08:32:53;9.90;99.90
2212;DHT22;48849;48.758;9.158;2024-03-02T08:35:20;9.90;99.90
2212;DHT22;48849;48.758;9.158;2024-03-02T08:37:47;9.90;99.90
2212;DHT22;48849;48.758;9.158;2024-03-02T08:40:15;9.90;99.90
2212;DHT22;48849;48.758;9.158;2024-03-02T08:42:42;9.90;99.90
2212;DHT22;48849;48.758;9.158;2024-03-02T08:45:09;9.90;99.90
2212;DHT22;48849;48.758;9.158;2024-03-02T08:47:36;9.90;99.90
2212;DHT22;48849;48.758;9.158;2024-03-02T08:50:06;9.90;99.90
2212;DHT22;48849;48.758;9.158;2024-03-02T08:52:34;10.00;99.90
2212;DHT22;48849;48.758;9.158;2024-03-02T08:55:01;10.00;99.90
2212;DHT22;48849;48.758;9.158;2024-03-02T08:57:28;10.00;99.90
2212;DHT22;48849;48.758;9.158;2024-03-02T08:59:55;10.00;99.90
2212;DHT22;48849;48.758;9.158;2024-03-02T09:02:22;10.10;99.90
2212;DHT22;48849;48.758;9.158;2024-03-02T09:04:49;10.20;99.90
2212;DHT22;48849;48.758;9.158;2024-03-02T09:07:17;10.20;99.90
2212;DHT22;48849;48.758;9.158;2024-03-02T09:09:43;10.20;99.90
2212;DHT22;48849;48.758;9.158;2024-03-02T09:12:11;10.20;99.90
2212;DHT22;48849;48.758;9.158;2024-03-02T09:14:38;10.20;99.90
2212;DHT22;48849;48.758;9.158;2024-03-02T09:17:06;10.30;99.90
2212;DHT22;48849;48.758;9.158;2024-03-02T09:19:34;10.30;99.90
2212;DHT22;48849;48.758;9.158;2024-03-02T09:22:01;10.40;99.90
2212;DHT22;48849;48.758;9.158;2024-03-02T09:24:30;10.40;99.90
2212;DHT22;48849;48.758;9.158;2024-03-02T09:26:56;10.40;99.90
2212;DHT22;48849;48.758;9.158;2024-03-02T09:29:23;10.50;99.90
2212;DHT22;48849;48.758;9.158;2024-03-02T09:32:04;10.50;99.90
2212;DHT22;48849;48.758;9.158;2024-03-02T09:37:57;11.20;99.90
2212;DHT22;48849;48.758;9.158;2024-03-02T09:40:26;10.70;99.90
2212;DHT22;48849;48.758;9.158;2024-03-02T09:42:54;10.70;99.90
2212;DHT22;48849;48.758;9.158;2024-03-02T09:45:23;10.60;99.90
2212;DHT22;48849;48.758;9.158;2024-03-02T09:47:52;10.80;99.90
2212;DHT22;48849;48.758;9.158;2024-03-02T09:50:18;12.40;99.90
2212;DHT22;48849;48.758;9.158;2024-03-02T09:52:48;12.40;99.90
2212;DHT22;48849;48.758;9.158;2024-03-02T09:55:15;11.00;99.90
2212;DHT22;48849;48.758;9.158;2024-03-02T09:57:45;10.90;99.90
2212;DHT22;48849;48.758;9.158;2024-03-02T10:00:17;11.00;99.90
2212;DHT22;48849;48.758;9.158;2024-03-02T10:02:53;11.00;99.90
2212;DHT22;48849;48.758;9.158;2024-03-02T10:05:24;11.80;99.90
2212;DHT22;48849;48.758;9.158;2024-03-02T10:08:06;11.80;99.90
2212;DHT22;48849;48.758;9.158;2024-03-02T10:10:39;11.90;99.90
2212;DHT22;48849;48.758;9.158;2024-03-02T10:13:13;11.10;99.90
2212;DHT22;48849;48.758;9.158;2024-03-02T10:15:55;11.30;99.90
2212;DHT22;48849;48.758;9.158;2024-03-02T10:18:38;11.20;99.90
2212;DHT22;48849;48.758;9.158;2024-03-02T10:21:13;11.20;99.90
2212;DHT22;48849;48.758;9.158;2024-03-02T10:23:40;11.20;99.90
2212;DHT22;48849;48.758;9.158;2024-03-02T10:26:17;11.30;99.90
2212;DHT22;48849;48.758;9.158;2024-03-02T10:28:47;11.80;99.90
2212;DHT22;48849;48.758;9.158;2024-03-02T10:31:17;12.00;99.90
2212;DHT22;48849;48.758;9.158;2024-03-02T10:34:01;12.10;99.90
2212;DHT22;48849;48.758;9.158;2024-03-02T10:36:32;10.90;99.90
2212;DHT22;48849;48.758;9.158;2024-03-02T10:39:46;11.30;99.90
2212;DHT22;48849;48.758;9.158;2024-03-02T10:42:16;12.50;99.90
2212;DHT22;48849;48.758;9.158;2024-03-02T10:44:49;11.50;99.90
2212;DHT22;48849;48.758;9.158;2024-03-02T10:47:19;12.30;99.90
2212;DHT22;48849;48.758;9.158;2024-03-02T10:49:47;11.50;99.90
2212;DHT22;48849;48.758;9.158;2024-03-02T10:52:17;11.50;99.90
2212;DHT22;48849;48.758;9.158;2024-03-02T10:54:44;12.60;99.90
2212;DHT22;48849;48.758;9.158;2024-03-02T10:57:14;11.60;99.90
2212;DHT22;48849;48.758;9.158;2024-03-02T10:59:56;12.70;99.90
2212;DHT22;48849;48.758;9.158;2024-03-02T11:02:41;11.60;99.90
2212;DHT22;48849;48.758;9.158;2024-03-02T11:05:23;10.70;99.90
2212;DHT22;48849;48.758;9.158;2024-03-02T11:08:06;10.40;99.90
2212;DHT22;48849;48.758;9.158;2024-03-02T11:10:41;11.70;99.90
2212;DHT22;48849;48.758;9.158;2024-03-02T11:13:09;12.80;99.90
2212;DHT22;48849;48.758;9.158;2024-03-02T11:15:59;12.10;99.90
2212;DHT22;48849;48.758;9.158;2024-03-02T11:18:31;12.10;99.90
2212;DHT22;48849;48.758;9.158;2024-03-02T11:21:03;11.70;99.90
2212;DHT22;48849;48.758;9.158;2024-03-02T11:23:36;11.80;99.90
2212;DHT22;48849;48.758;9.158;2024-03-02T11:26:26;11.90;99.90
2212;DHT22;48849;48.758;9.158;2024-03-02T11:29:03;13.00;99.90
2212;DHT22;48849;48.758;9.158;2024-03-02T11:32:01;12.10;99.90
2212;DHT22;48849;48.758;9.158;2024-03-02T11:34:45;12.20;99.90
2212;DHT22;48849;48.758;9.158;2024-03-02T11:37:25;11.60;99.90
2212;DHT22;48849;48.758;9.158;2024-03-02T11:40:07;12.30;99.90
2212;DHT22;48849;48.758;9.158;2024-03-02T11:42:44;13.00;99.90
2212;DHT22;48849;48.758;9.158;2024-03-02T11:45:26;12.60;99.90
2212;DHT22;48849;48.758;9.158;2024-03-02T11:48:10;12.80;99.90
2212;DHT22;48849;48.758;9.158;2024-03-02T11:50:49;13.80;99.90
2212;DHT22;48849;48.758;9.158;2024-03-02T11:53:26;13.20;99.90
2212;DHT22;48849;48.758;9.158;2024-03-02T11:56:01;13.70;99.90
2212;DHT22;48849;48.758;9.158;2024-03-02T11:58:42;13.60;99.90
2212;DHT22;48849;48.758;9.158;2024-03-02T12:01:21;13.70;99.90
2212;DHT22;48849;48.758;9.158;2024-03-02T12:03:55;14.40;99.90
2212;DHT22;48849;48.758;9.158;2024-03-02T12:06:28;14.30;99.90
2212;DHT22;48849;48.758;9.158;2024-03-02T12:09:05;14.30;99.90
2212;DHT22;48849;48.758;9.158;2024-03-02T12:11:37;14.20;99.90
2212;DHT22;48849;48.758;9.158;2024-03-02T12:14:20;15.20;99.90
2212;DHT22;48849;48.758;9.158;2024-03-02T12:17:15;13.70;99.90
2212;DHT22;48849;48.758;9.158;2024-03-02T12:20:18;14.70;99.90
2212;DHT22;48849;48.758;9.158;2024-03-02T12:23:04;15.00;99.90
2212;DHT22;48849;48.758;9.158;2024-03-02T12:25:42;15.80;99.90
2212;DHT22;48849;48.758;9.158;2024-03-02T12:28:33;15.70;99.90
2212;DHT22;48849;48.758;9.158;2024-03-02T12:31:11;15.50;99.90
2212;DHT22;48849;48.758;9.158;2024-03-02T12:33:43;15.30;99.90
2212;DHT22;48849;48.758;9.158;2024-03-02T12:36:13;15.30;99.90
2212;DHT22;48849;48.758;9.158;2024-03-02T12:38:43;15.10;99.90
2212;DHT22;48849;48.758;9.158;2024-03-02T12:41:15;15.00;99.90
2212;DHT22;48849;48.758;9.158;2024-03-02T12:43:45;14.90;99.90
2212;DHT22;48849;48.758;9.158;2024-03-02T12:46:13;14.80;99.90
2212;DHT22;48849;48.758;9.158;2024-03-02T12:48:40;15.50;99.90
2212;DHT22;48849;48.758;9.158;2024-03-02T12:51:07;15.10;99.90
2212;DHT22;48849;48.758;9.158;2024-03-02T12:53:36;14.50;99.90
2212;DHT22;48849;48.758;9.158;2024-03-02T12:56:08;15.40;99.90
2212;DHT22;48849;48.758;9.158;2024-03-02T12:58:39;14.70;99.90
2212;DHT22;48849;48.758;9.158;2024-03-02T13:01:07;14.10;99.90
2212;DHT22;48849;48.758;9.158;2024-03-02T13:03:36;14.10;99.90
2212;DHT22;48849;48.758;9.158;2024-03-02T13:06:04;14.00;99.90
2212;DHT22;48849;48.758;9.158;2024-03-02T13:08:33;14.00;99.90
2212;DHT22;48849;48.758;9.158;2024-03-02T13:11:02;13.90;99.90
2212;DHT22;48849;48.758;9.158;2024-03-02T13:13:32;13.90;99.90
2212;DHT22;48849;48.758;9.158;2024-03-02T13:16:00;14.10;99.90
2212;DHT22;48849;48.758;9.158;2024-03-02T13:18:28;14.10;99.90
2212;DHT22;48849;48.758;9.158;2024-03-02T13:20:56;14.10;99.90
2212;DHT22;48849;48.758;9.158;2024-03-02T13:23:23;13.80;99.90
2212;DHT22;48849;48.758;9.158;2024-03-02T13:25:50;15.00;99.90
2212;DHT22;48849;48.758;9.158;2024-03-02T13:28:18;13.80;99.90
2212;DHT22;48849;48.758;9.158;2024-03-02T13:30:45;14.30;99.90
2212;DHT22;48849;48.758;9.158;2024-03-02T13:33:12;13.80;99.90
2212;DHT22;48849;48.758;9.158;2024-03-02T13:35:41;13.70;99.90
2212;DHT22;48849;48.758;9.158;2024-03-02T13:38:08;13.70;99.90
2212;DHT22;48849;48.758;9.158;2024-03-02T13:40:36;13.60;99.90
2212;DHT22;48849;48.758;9.158;2024-03-02T13:43:03;13.60;99.90
2212;DHT22;48849;48.758;9.158;2024-03-02T13:45:31;12.90;99.90
2212;DHT22;48849;48.758;9.158;2024-03-02T13:47:59;14.80;99.90
2212;DHT22;48849;48.758;9.158;2024-03-02T13:50:27;13.50;99.90
2212;DHT22;48849;48.758;9.158;2024-03-02T13:52:54;13.40;99.90
2212;DHT22;48849;48.758;9.158;2024-03-02T13:55:23;13.90;99.90
2212;DHT22;48849;48.758;9.158;2024-03-02T13:57:51;13.00;99.90
2212;DHT22;48849;48.758;9.158;2024-03-02T14:00:22;13.30;99.90
2212;DHT22;48849;48.758;9.158;2024-03-02T14:02:51;13.30;99.90
2212;DHT22;48849;48.758;9.158;2024-03-02T14:05:20;13.30;99.90
2212;DHT22;48849;48.758;9.158;2024-03-02T14:07:47;13.20;99.90
2212;DHT22;48849;48.758;9.158;2024-03-02T14:10:14;13.20;99.90
2212;DHT22;48849;48.758;9.158;2024-03-02T14:12:42;13.20;99.90
2212;DHT22;48849;48.758;9.158;2024-03-02T14:15:09;14.20;99.90
2212;DHT22;48849;48.758;9.158;2024-03-02T14:17:38;13.10;99.90
2212;DHT22;48849;48.758;9.158;2024-03-02T14:20:09;13.10;99.90
2212;DHT22;48849;48.758;9.158;2024-03-02T14:22:37;13.10;99.90
2212;DHT22;48849;48.758;9.158;2024-03-02T14:25:08;13.10;99.90
2212;DHT22;48849;48.758;9.158;2024-03-02T14:27:35;13.10;99.90
2212;DHT22;48849;48.758;9.158;2024-03-02T14:30:10;14.10;99.90
2212;DHT22;48849;48.758;9.158;2024-03-02T14:32:37;13.10;99.90
2212;DHT22;48849;48.758;9.158;2024-03-02T14:35:11;13.00;99.90
2212;DHT22;48849;48.758;9.158;2024-03-02T14:38:03;12.90;99.90
2212;DHT22;48849;48.758;9.158;2024-03-02T14:44:25;12.90;99.90
2212;DHT22;48849;48.758;9.158;2024-03-02T14:46:54;13.00;99.90
2212;DHT22;48849;48.758;9.158;2024-03-02T14:49:23;13.70;99.90
2212;DHT22;48849;48.758;9.158;2024-03-02T14:51:52;14.20;99.90
2212;DHT22;48849;48.758;9.158;2024-03-02T14:54:18;14.30;99.90
2212;DHT22;48849;48.758;9.158;2024-03-02T14:56:46;14.40;99.90
2212;DHT22;48849;48.758;9.158;2024-03-02T14:59:14;12.90;99.90
2212;DHT22;48849;48.758;9.158;2024-03-02T15:01:41;12.90;99.90
2212;DHT22;48849;48.758;9.158;2024-03-02T15:04:09;12.90;99.90
2212;DHT22;48849;48.758;9.158;2024-03-02T15:06:36;12.90;99.90
2212;DHT22;48849;48.758;9.158;2024-03-02T15:09:07;12.90;99.90
2212;DHT22;48849;48.758;9.158;2024-03-02T15:11:34;12.90;99.90
2212;DHT22;48849;48.758;9.158;2024-03-02T15:14:01;12.90;99.90
2212;DHT22;48849;48.758;9.158;2024-03-02T15:16:28;13.40;99.90
2212;DHT22;48849;48.758;9.158;2024-03-02T15:18:55;13.20;99.90
2212;DHT22;48849;48.758;9.158;2024-03-02T15:21:27;12.90;99.90
2212;DHT22;48849;48.758;9.158;2024-03-02T15:23:54;13.00;99.90
2212;DHT22;48849;48.758;9.158;2024-03-02T15:26:23;12.80;99.90
2212;DHT22;48849;48.758;9.158;2024-03-02T15:28:50;12.80;99.90
2212;DHT22;48849;48.758;9.158;2024-03-02T15:31:18;12.80;99.90
2212;DHT22;48849;48.758;9.158;2024-03-02T15:33:45;12.80;99.90
2212;DHT22;48849;48.758;9.158;2024-03-02T15:36:13;12.80;99.90
2212;DHT22;48849;48.758;9.158;2024-03-02T15:38:40;12.80;99.90
2212;DHT22;48849;48.758;9.158;2024-03-02T15:41:08;12.80;99.90
2212;DHT22;48849;48.758;9.158;2024-03-02T15:43:37;12.70;99.90
2212;DHT22;48849;48.758;9.158;2024-03-02T15:46:06;12.70;99.90
2212;DHT22;48849;48.758;9.158;2024-03-02T15:48:33;12.70;99.90
2212;DHT22;48849;48.758;9.158;2024-03-02T15:51:00;12.70;99.90
2212;DHT22;48849;48.758;9.158;2024-03-02T15:53:29;12.70;99.90
2212;DHT22;48849;48.758;9.158;2024-03-02T15:55:56;12.70;99.90
2212;DHT22;48849;48.758;9.158;2024-03-02T15:58:23;13.20;99.90
2212;DHT22;48849;48.758;9.158;2024-03-02T16:00:51;12.60;99.90
2212;DHT22;48849;48.758;9.158;2024-03-02T16:03:18;12.60;99.90
2212;DHT22;48849;48.758;9.158;2024-03-02T16:05:46;12.60;99.90
2212;DHT22;48849;48.758;9.158;2024-03-02T16:08:14;12.70;99.90
2212;DHT22;48849;48.758;9.158;2024-03-02T16:10:40;12.70;99.90
2212;DHT22;48849;48.758;9.158;2024-03-02T16:13:07;12.60;99.90
2212;DHT22;48849;48.758;9.158;2024-03-02T16:15:35;12.60;99.90
2212;DHT22;48849;48.758;9.158;2024-03-02T16:18:04;12.60;99.90
2212;DHT22;48849;48.758;9.158;2024-03-02T16:20:31;12.60;99.90
2212;DHT22;48849;48.758;9.158;2024-03-02T16:22:59;12.60;99.90
2212;DHT22;48849;48.758;9.158;2024-03-02T16:25:26;12.60;99.90
2212;DHT22;48849;48.758;9.158;2024-03-02T16:27:53;12.60;99.90
2212;DHT22;48849;48.758;9.158;2024-03-02T16:30:20;12.60;99.90
2212;DHT22;48849;48.758;9.158;2024-03-02T16:32:47;12.60;99.90
2212;DHT22;48849;48.758;9.158;2024-03-02T16:35:15;12.60;99.90
2212;DHT22;48849;48.758;9.158;2024-03-02T16:37:42;12.60;99.90
2212;DHT22;48849;48.758;9.158;2024-03-02T16:40:10;12.60;99.90
2212;DHT22;48849;48.758;9.158;2024-03-02T16:42:38;12.60;99.90